Time;durP1;ratioP1;P1;durP2;ratioP2;P2;SDS_P1;SDS_P2;PMS_P1;PMS_P2;Temp;Humidity;BMP_temperature;BMP_pressure;BME280_temperature;BME280_humidity;BME280_pressure;Samples;Min_cycle;Max_cycle;Signal;HPM_P1;HPM_P2
2023/09/07 00:04:14;;;;;;;;;;;;;;;23.09;49.66;96038.06;10490162;28;980;-61
2023/09/07 00:09:15;;;;;;;;;;;;;;;23.08;49.49;96037.28;10495869;28;1366;-62
2023/09/07 00:14:16;;;;;;;;;;;;;;;23.09;49.53;96033.56;10486284;28;1886;-62
2023/09/07 00:19:16;;;;;;;;;;;;;;;23.08;49.42;96029.34;10489163;28;979;-61
2023/09/07 00:24:17;;;;;;;;;;;;;;;23.08;49.58;96023.28;10485260;28;1446;-61
2023/09/07 00:29:18;;;;;;;;;;;;;;;23.08;49.51;96023.28;10481577;28;1363;-61
2023/09/07 00:34:18;;;;;;;;;;;;;;;23.07;49.47;96019.06;10508897;28;1984;-61
2023/09/07 00:39:19;;;;;;;;;;;;;;;23.07;49.67;96019.06;10489086;28;1429;-62
2023/09/07 00:44:19;;;;;;;;;;;;;;;23.07;49.59;96013.75;10487415;28;2604;-62
2023/09/07 00:49:19;;;;;;;;;;;;;;;23.08;49.63;96023.28;10486556;28;1190;-61
2023/09/07 00:54:19;;;;;;;;;;;;;;;23.07;49.63;96019.84;10486462;28;5044;-61
2023/09/07 00:59:20;;;;;;;;;;;;;;;23.07;49.58;96022.50;10486448;28;1569;-61
2023/09/07 01:04:20;;;;;;;;;;;;;;;23.08;49.70;96015.34;10497958;28;1572;-61
2023/09/07 01:09:21;;;;;;;;;;;;;;;23.07;49.68;96019.06;10491132;28;960;-61
2023/09/07 01:20:05;;;;;;;;;;;;;;;23.07;49.37;96019.06;10476280;28;1525;-61
2023/09/07 01:25:06;;;;;;;;;;;;;;;23.07;49.56;96013.75;10474632;28;1518;-61
2023/09/07 01:30:08;;;;;;;;;;;;;;;23.06;49.68;96012.22;10485768;28;1043;-61
2023/09/07 01:35:08;;;;;;;;;;;;;;;23.06;49.45;96012.97;10496088;28;1909;-61
2023/09/07 01:40:08;;;;;;;;;;;;;;;23.06;49.36;96012.22;10483058;28;2418;-61
2023/09/07 01:45:09;;;;;;;;;;;;;;;23.05;49.44;96014.06;10470556;28;1699;-61
2023/09/07 01:50:09;;;;;;;;;;;;;;;23.05;49.32;96005.34;10476295;28;1586;-61
2023/09/07 01:55:09;;;;;;;;;;;;;;;23.06;49.31;96006.91;10487066;28;5109;-61
2023/09/07 02:00:10;;;;;;;;;;;;;;;23.06;49.42;96001.63;10485890;28;1691;-61
2023/09/07 02:05:10;;;;;;;;;;;;;;;23.05;49.25;96007.97;10476647;28;1510;-61
2023/09/07 02:10:10;;;;;;;;;;;;;;;23.05;49.62;96005.34;10474944;28;1558;-61
2023/09/07 02:15:11;;;;;;;;;;;;;;;23.05;49.41;96010.63;10482887;28;1918;-61
2023/09/07 02:20:11;;;;;;;;;;;;;;;23.04;49.41;95998.47;10470626;28;1503;-61
2023/09/07 02:25:11;;;;;;;;;;;;;;;23.05;49.53;96005.34;10491344;28;1557;-61
2023/09/07 02:30:12;;;;;;;;;;;;;;;23.04;49.52;96012.47;10482523;28;2232;-62
2023/09/07 02:35:12;;;;;;;;;;;;;;;23.04;49.31;96009.81;10482921;28;2449;-61
2023/09/07 02:40:12;;;;;;;;;;;;;;;23.03;49.29;96007.47;10486711;28;1114;-61
2023/09/07 02:45:14;;;;;;;;;;;;;;;23.04;49.32;96012.47;10469136;28;1806;-61
2023/09/07 02:50:15;;;;;;;;;;;;;;;23.04;49.32;96011.69;10465824;28;1552;-61
2023/09/07 02:55:16;;;;;;;;;;;;;;;23.04;49.52;96014.34;10479139;28;5176;-61
2023/09/07 03:00:19;;;;;;;;;;;;;;;23.04;49.45;96017.00;10473522;28;1664;-62
2023/09/07 03:05:19;;;;;;;;;;;;;;;23.04;49.23;96012.47;10484497;28;1546;-61
2023/09/07 03:10:22;;;;;;;;;;;;;;;23.04;49.33;96009.06;10479149;28;1442;-61
2023/09/07 03:15:22;;;;;;;;;;;;;;;23.03;49.34;96007.47;10481246;28;2084;-61
2023/09/07 03:20:22;;;;;;;;;;;;;;;23.01;49.27;96006.97;10484610;28;1534;-62
2023/09/07 03:25:23;;;;;;;;;;;;;;;23.03;49.27;96013.56;10488701;28;1426;-61
2023/09/07 03:30:23;;;;;;;;;;;;;;;23.03;49.40;96016.19;10483935;28;1023;-61
2023/09/07 03:35:23;;;;;;;;;;;;;;;23.02;49.22;96016.50;10480650;28;6537;-62
2023/09/07 03:40:23;;;;;;;;;;;;;;;23.04;49.39;96011.69;10482258;28;5402;-62
2023/09/07 03:45:24;;;;;;;;;;;;;;;23.02;49.46;96019.91;10484609;28;1529;-62
2023/09/07 03:50:24;;;;;;;;;;;;;;;23.02;49.24;96019.13;10496972;28;5266;-62
2023/09/07 03:55:24;;;;;;;;;;;;;;;23.01;49.27;96014.91;10494948;28;1967;-61
2023/09/07 04:00:25;;;;;;;;;;;;;;;23.02;49.21;96022.53;10490606;28;971;-61
2023/09/07 04:05:25;;;;;;;;;;;;;;;23.00;49.27;96016.75;10480412;28;1384;-62
2023/09/07 04:10:25;;;;;;;;;;;;;;;23.01;49.34;96017.53;10478640;28;5452;-62
2023/09/07 04:15:26;;;;;;;;;;;;;;;23.00;49.14;96027.31;10482472;28;1975;-62
2023/09/07 04:20:28;;;;;;;;;;;;;;;23.00;49.02;96031.84;10501810;28;1398;-61
2023/09/07 04:25:28;;;;;;;;;;;;;;;23.00;49.12;96018.63;10498835;28;1566;-61
2023/09/07 04:30:28;;;;;;;;;;;;;;;23.00;49.38;96026.56;10467707;28;1114;-62
2023/09/07 04:35:30;;;;;;;;;;;;;;;23.00;49.47;96029.97;10487017;28;1909;-61
2023/09/07 04:40:30;;;;;;;;;;;;;;;23.00;49.27;96032.59;10482297;28;6168;-61
2023/09/07 04:45:30;;;;;;;;;;;;;;;23.00;49.17;96039.78;10503017;28;1580;-61
2023/09/07 04:50:30;;;;;;;;;;;;;;;22.99;49.21;96041.63;10496730;28;1716;-61
2023/09/07 04:55:30;;;;;;;;;;;;;;;23.00;49.21;96034.50;10467506;28;1906;-61
2023/09/07 05:00:31;;;;;;;;;;;;;;;22.99;48.99;96032.91;10487956;28;1618;-62
2023/09/07 05:05:31;;;;;;;;;;;;;;;22.99;49.37;96035.53;10451483;28;1060486;-61
2023/09/07 05:10:34;;;;;;;;;;;;;;;22.99;49.13;96030.25;10479307;28;1491;-61
2023/09/07 05:15:35;;;;;;;;;;;;;;;22.98;49.14;96036.63;10469560;28;1978;-61
2023/09/07 05:20:35;;;;;;;;;;;;;;;22.99;49.14;96043.47;10482344;28;1462;-62
2023/09/07 05:25:42;;;;;;;;;;;;;;;22.99;49.17;96046.91;10480893;28;1483;-62
2023/09/07 05:30:42;;;;;;;;;;;;;;;22.98;49.07;96042.69;10477749;28;1542;-61
2023/09/07 05:35:42;;;;;;;;;;;;;;;22.98;48.96;96053.25;10474226;28;1983;-61
2023/09/07 05:40:43;;;;;;;;;;;;;;;22.99;48.92;96054.06;10518122;28;4976;-62
2023/09/07 05:45:44;;;;;;;;;;;;;;;22.99;49.28;96060.13;10491645;28;1454;-62
2023/09/07 05:50:44;;;;;;;;;;;;;;;22.98;48.96;96061.19;10477083;28;1347;-62
2023/09/07 05:55:44;;;;;;;;;;;;;;;22.98;49.00;96061.19;10483206;28;1941;-62
2023/09/07 06:00:45;;;;;;;;;;;;;;;22.99;49.16;96069.91;10478512;28;1329;-62
2023/09/07 06:05:45;;;;;;;;;;;;;;;22.97;48.92;96064.91;10490758;28;1391;-62
2023/09/07 06:10:45;;;;;;;;;;;;;;;22.98;49.13;96073.63;10494094;28;1351;-63
2023/09/07 06:15:46;;;;;;;;;;;;;;;22.98;49.04;96071.00;10486832;28;1914;-62
2023/09/07 06:20:47;;;;;;;;;;;;;;;22.98;49.03;96078.94;10467258;28;1411;-63
2023/09/07 06:25:47;;;;;;;;;;;;;;;22.97;49.03;96075.50;10469214;28;1507;-63
2023/09/07 06:30:47;;;;;;;;;;;;;;;22.97;49.23;96072.06;10496309;28;1414;-63
2023/09/07 06:35:47;;;;;;;;;;;;;;;22.98;49.06;96065.72;10473905;28;2491;-63
2023/09/07 06:40:49;;;;;;;;;;;;;;;22.98;49.23;96073.63;10522037;28;5594;-63
2023/09/07 06:45:51;;;;;;;;;;;;;;;22.98;49.24;96071.00;10484381;28;1668;-64
2023/09/07 06:50:54;;;;;;;;;;;;;;;22.98;49.39;96068.34;10482034;28;1418;-61
2023/09/07 06:56:00;;;;;;;;;;;;;;;22.97;49.37;96067.56;10473489;28;2024;-62
2023/09/07 07:01:01;;;;;;;;;;;;;;;22.98;49.31;96071.00;10484873;28;1168;-61
2023/09/07 07:06:01;;;;;;;;;;;;;;;22.98;49.48;96074.41;10496360;28;1382;-62
2023/09/07 07:11:02;;;;;;;;;;;;;;;22.98;49.36;96078.94;10471721;28;1427;-63
2023/09/07 07:16:03;;;;;;;;;;;;;;;22.98;49.57;96077.06;10483057;28;2001;-62
2023/09/07 07:21:04;;;;;;;;;;;;;;;22.97;49.36;96072.84;10475276;28;1381;-61
2023/09/07 07:26:04;;;;;;;;;;;;;;;22.97;49.51;96078.13;10482545;28;1410;-62
2023/09/07 07:31:09;;;;;;;;;;;;;;;22.98;49.44;96084.22;10490203;28;2604;-62
2023/09/07 07:36:09;;;;;;;;;;;;;;;22.98;49.56;96087.63;10473784;28;1988;-62
2023/09/07 07:41:09;;;;;;;;;;;;;;;22.98;49.62;96090.28;10486235;28;4964;-62
2023/09/07 07:46:10;;;;;;;;;;;;;;;22.99;49.28;96085.78;10488161;28;1079;-62
2023/09/07 07:51:10;;;;;;;;;;;;;;;22.97;49.23;96082.63;10503730;28;1507;-62
2023/09/07 07:56:17;;;;;;;;;;;;;;;22.98;49.59;96094.78;10518332;28;1980;-62
2023/09/07 08:01:17;;;;;;;;;;;;;;;22.99;49.46;96091.06;10501389;28;1443;-61
2023/09/07 08:06:17;;;;;;;;;;;;;;;22.99;49.36;96088.41;10487194;28;1361;-61
2023/09/07 08:11:21;;;;;;;;;;;;;;;22.99;49.51;96086.56;10514631;28;1340;-62
2023/09/07 08:16:21;;;;;;;;;;;;;;;22.99;49.29;96080.50;10478799;28;1915;-61
2023/09/07 08:21:22;;;;;;;;;;;;;;;23.01;49.29;96083.63;10496905;28;1633;-62
2023/09/07 08:26:22;;;;;;;;;;;;;;;22.99;49.65;96083.13;10495484;28;2296;-61
2023/09/07 08:31:22;;;;;;;;;;;;;;;23.00;49.36;96084.72;10485897;28;1468;-61
2023/09/07 08:36:23;;;;;;;;;;;;;;;23.01;49.42;96088.94;10498706;28;2026;-61
2023/09/07 08:41:24;;;;;;;;;;;;;;;23.02;49.44;96079.94;10478085;28;5067;-62
2023/09/07 08:46:24;;;;;;;;;;;;;;;23.03;49.47;96081.50;10469393;28;1583;-62
2023/09/07 08:51:27;;;;;;;;;;;;;;;23.02;49.68;96075.41;10491347;28;1641;-65
2023/09/07 08:56:28;;;;;;;;;;;;;;;23.02;49.33;96072.78;10489778;28;1910;-65
2023/09/07 09:01:31;;;;;;;;;;;;;;;23.04;49.58;96080.44;10470847;28;1722;-63
2023/09/07 09:06:31;;;;;;;;;;;;;;;23.04;49.45;96078.56;10479696;28;1074;-63
2023/09/07 09:11:32;;;;;;;;;;;;;;;23.05;49.33;96079.38;10474391;28;1968;-63
2023/09/07 09:16:32;;;;;;;;;;;;;;;23.05;49.51;96082.81;10496824;28;1370;-63
2023/09/07 09:21:32;;;;;;;;;;;;;;;23.07;49.42;96077.22;10488206;28;2284;-63
2023/09/07 09:26:32;;;;;;;;;;;;;;;23.06;49.58;96071.13;10486502;28;1339;-63
2023/09/07 09:31:33;;;;;;;;;;;;;;;23.08;49.39;96068.25;10462832;28;1945;-63
2023/09/07 09:36:34;;;;;;;;;;;;;;;23.08;49.39;96063.72;10466140;28;1221;-63
2023/09/07 09:41:34;;;;;;;;;;;;;;;23.08;49.51;96063.72;10487742;28;5095;-63
2023/09/07 09:46:34;;;;;;;;;;;;;;;23.08;49.34;96063.72;10499379;28;1615;-63
2023/09/07 09:51:34;;;;;;;;;;;;;;;23.09;49.48;96056.56;10512090;28;1961;-63
2023/09/07 09:56:35;;;;;;;;;;;;;;;23.11;49.33;96059.72;10483231;28;1387;-62
2023/09/07 10:01:46;;;;;;;;;;;;;;;23.12;49.36;96056.03;10479339;28;1427;-63
2023/09/07 10:06:50;;;;;;;;;;;;;;;23.12;49.55;96063.97;10487712;28;988;-63
2023/09/07 10:11:57;;;;;;;;;;;;;;;23.13;49.68;96060.22;10499712;28;1977;-63
2023/09/07 10:17:03;;;;;;;;;;;;;;;23.13;49.66;96050.44;10485650;28;1359;-63
2023/09/07 10:22:03;;;;;;;;;;;;;;;23.14;49.67;96057.28;10478972;28;2915;-63
2023/09/07 10:27:07;;;;;;;;;;;;;;;23.16;49.58;96059.69;10464359;28;1328;-60
2023/09/07 10:32:08;;;;;;;;;;;;;;;23.16;49.80;96051.75;10460498;28;1942;-62
2023/09/07 10:37:13;;;;;;;;;;;;;;;23.16;49.84;96049.09;10481337;28;1357;-63
2023/09/07 10:42:19;;;;;;;;;;;;;;;23.18;49.66;96044.31;10496405;28;5051;-63
2023/09/07 10:47:20;;;;;;;;;;;;;;;23.18;49.72;96036.38;10484241;28;1433;-63
2023/09/07 10:52:20;;;;;;;;;;;;;;;23.18;49.86;96044.31;10486545;28;2054;-63
2023/09/07 10:57:20;;;;;;;;;;;;;;;23.18;49.99;96044.31;10473292;28;1402;-62
2023/09/07 11:02:20;;;;;;;;;;;;;;;23.19;49.92;96044.03;10504165;28;1522;-63
2023/09/07 11:07:21;;;;;;;;;;;;;;;23.21;49.75;96046.38;10490988;28;951;-63
2023/09/07 11:12:21;;;;;;;;;;;;;;;23.21;49.92;96036.59;10467716;28;1980;-62
2023/09/07 11:17:28;;;;;;;;;;;;;;;23.21;49.90;96036.59;10478340;28;2294;-62
2023/09/07 11:22:28;;;;;;;;;;;;;;;23.22;49.97;96032.09;10474295;28;1150;-63
2023/09/07 11:27:29;;;;;;;;;;;;;;;23.22;49.92;96034.75;10483157;28;1423;-63
2023/09/07 11:32:33;;;;;;;;;;;;;;;23.24;50.02;96027.31;10497715;28;1971;-62
2023/09/07 11:37:33;;;;;;;;;;;;;;;23.24;50.09;96029.97;10529114;28;1308;-63
2023/09/07 11:42:34;;;;;;;;;;;;;;;23.24;49.68;96024.66;10491082;28;5102;-62
2023/09/07 11:47:34;;;;;;;;;;;;;;;23.25;49.92;96026.22;10504586;28;1457;-62
2023/09/07 11:52:35;;;;;;;;;;;;;;;23.25;49.87;96023.59;10513867;28;1914;-62
2023/09/07 11:57:35;;;;;;;;;;;;;;;23.26;49.94;96017.25;10513447;28;1340;-62
2023/09/07 12:02:35;;;;;;;;;;;;;;;23.27;50.18;96021.44;10491650;28;1379;-62
2023/09/07 12:07:36;;;;;;;;;;;;;;;23.27;49.99;96013.50;10499269;28;1194;-63
2023/09/07 12:12:37;;;;;;;;;;;;;;;23.29;50.01;96014.00;10495844;28;1998;-62
2023/09/07 12:17:37;;;;;;;;;;;;;;;23.29;50.17;96017.44;10480116;28;1516;-61
2023/09/07 12:22:37;;;;;;;;;;;;;;;23.29;50.17;96012.16;10493323;28;1489;-61
2023/09/07 12:27:37;;;;;;;;;;;;;;;23.30;50.24;96012.97;10492783;28;1505;-61
2023/09/07 12:32:38;;;;;;;;;;;;;;;23.32;50.24;96008.19;10508315;28;1905;-62
2023/09/07 12:37:39;;;;;;;;;;;;;;;23.31;50.36;96002.09;10500978;28;1194;-63
2023/09/07 12:42:39;;;;;;;;;;;;;;;23.31;50.14;95994.16;10486874;28;5195;-62
2023/09/07 12:47:40;;;;;;;;;;;;;;;;;;10521112;28;1438;-62
2023/09/07 12:52:40;;;;;;;;;;;;;;;23.34;50.10;95982.25;10499276;28;1902;-62
2023/09/07 12:57:40;;;;;;;;;;;;;;;23.35;50.50;95989.09;10491909;28;1318;-62
2023/09/07 13:02:40;;;;;;;;;;;;;;;23.36;50.11;95988.03;10488598;28;1422;-62
2023/09/07 13:07:43;;;;;;;;;;;;;;;23.35;50.40;95989.09;10483294;28;2433;-62
2023/09/07 13:12:44;;;;;;;;;;;;;;;23.36;50.38;95991.47;10478692;28;1902;-62
2023/09/07 13:17:44;;;;;;;;;;;;;;;23.37;50.24;95989.59;10494344;28;1519;-64
2023/09/07 13:22:46;;;;;;;;;;;;;;;23.38;50.15;95983.25;10496909;28;1102;-62
2023/09/07 13:27:46;;;;;;;;;;;;;;;23.38;50.22;95972.66;10491072;28;1434;-64
2023/09/07 13:32:46;;;;;;;;;;;;;;;23.38;50.21;95981.41;10484686;28;1910;-62
2023/09/07 13:37:46;;;;;;;;;;;;;;;23.39;50.35;95968.94;10489777;28;1438;-63
2023/09/07 13:42:50;;;;;;;;;;;;;;;23.38;50.63;95968.16;10489183;28;5552;-62
2023/09/07 13:47:50;;;;;;;;;;;;;;;23.40;50.51;95963.38;10496093;28;1417;-62
2023/09/07 13:52:50;;;;;;;;;;;;;;;23.39;50.62;95966.28;10507024;28;1906;-62
2023/09/07 13:57:51;;;;;;;;;;;;;;;23.41;50.42;95964.19;10479605;28;1473;-62
2023/09/07 14:02:52;;;;;;;;;;;;;;;23.40;50.35;95965.22;10481297;28;2186;-62
2023/09/07 14:07:52;;;;;;;;;;;;;;;23.41;50.32;95964.19;10490944;28;1459;-62
2023/09/07 14:12:52;;;;;;;;;;;;;;;23.43;50.43;95964.69;10491558;28;1902;-62
2023/09/07 14:17:53;;;;;;;;;;;;;;;23.42;50.38;95960.44;10499012;28;1295;-61
2023/09/07 14:22:56;;;;;;;;;;;;;;;23.42;50.46;95963.88;10481126;28;1190;-62
2023/09/07 14:27:56;;;;;;;;;;;;;;;23.43;50.74;95959.38;10480829;28;1407;-62
2023/09/07 14:32:56;;;;;;;;;;;;;;;23.44;50.66;95963.59;10482166;28;1906;-61
2023/09/07 14:37:57;;;;;;;;;;;;;;;23.43;50.38;95965.44;10499504;28;1111;-61
2023/09/07 14:42:57;;;;;;;;;;;;;;;23.43;50.27;95962.78;10481192;28;5171;-62
2023/09/07 14:47:57;;;;;;;;;;;;;;;23.43;50.62;95959.38;10482381;28;1399;-61
2023/09/07 14:52:57;;;;;;;;;;;;;;;23.43;50.66;95959.38;10478962;28;1879;-62
2023/09/07 14:57:58;;;;;;;;;;;;;;;23.44;50.55;95966.22;10459092;28;1261;-62
2023/09/07 15:02:58;;;;;;;;;;;;;;;23.44;50.41;95963.59;10485943;28;2386;-61
2023/09/07 15:08:02;;;;;;;;;;;;;;;23.44;50.48;95958.28;10494006;28;1541;-61
2023/09/07 15:13:02;;;;;;;;;;;;;;;23.44;50.42;95960.94;10494395;28;1910;-62
2023/09/07 15:18:03;;;;;;;;;;;;;;;23.44;50.65;95964.38;10486461;28;1430;-62
2023/09/07 15:23:03;;;;;;;;;;;;;;;23.45;50.61;95959.88;10471992;28;1019;-62
2023/09/07 15:28:08;;;;;;;;;;;;;;;23.44;50.62;95953.00;10492557;28;1339;-62
2023/09/07 15:33:08;;;;;;;;;;;;;;;23.43;50.27;95959.38;10506515;28;1986;-62
2023/09/07 15:38:08;;;;;;;;;;;;;;;23.43;50.49;95954.84;10491393;28;1405;-62
2023/09/07 15:43:09;;;;;;;;;;;;;;;23.43;50.49;95954.84;10491426;28;5158;-62
2023/09/07 15:48:09;;;;;;;;;;;;;;;23.44;50.21;95956.44;10482915;28;1616;-61
2023/09/07 15:53:09;;;;;;;;;;;;;;;23.44;50.31;95966.22;10492651;28;1905;-60
2023/09/07 15:58:10;;;;;;;;;;;;;;;23.43;50.53;95960.16;10489965;28;2371;-61
2023/09/07 16:03:10;;;;;;;;;;;;;;;23.43;50.29;95964.69;10491523;28;1704;-62
2023/09/07 16:08:10;;;;;;;;;;;;;;;23.44;50.32;95964.38;10493631;28;1463;-62
2023/09/07 16:13:11;;;;;;;;;;;;;;;23.43;50.21;95965.44;10486240;28;1917;-62
2023/09/07 16:18:11;;;;;;;;;;;;;;;23.44;50.38;95953.00;10471331;28;1418;-62
2023/09/07 16:23:11;;;;;;;;;;;;;;;23.42;50.35;95963.88;10505654;28;1133;-61
2023/09/07 16:28:12;;;;;;;;;;;;;;;23.42;50.33;95961.22;10495382;28;1347;-62
2023/09/07 16:33:12;;;;;;;;;;;;;;;23.43;50.21;95959.38;10497403;28;1961;-62
2023/09/07 16:38:14;;;;;;;;;;;;;;;23.43;50.43;95959.38;10495374;28;1377;-62
2023/09/07 16:43:14;;;;;;;;;;;;;;;23.43;50.24;95959.38;10485784;28;5208;-62
2023/09/07 16:48:15;;;;;;;;;;;;;;;23.42;50.17;95963.88;10487760;28;1485;-62
2023/09/07 16:53:15;;;;;;;;;;;;;;;23.42;50.05;95958.59;10489028;28;2371;-62
2023/09/07 16:58:15;;;;;;;;;;;;;;;23.42;50.27;95960.44;10484369;28;1551;-62
2023/09/07 17:03:15;;;;;;;;;;;;;;;23.42;50.34;95963.09;10479218;28;1430;-62
2023/09/07 17:08:17;;;;;;;;;;;;;;;23.42;50.28;95966.53;10477807;28;1038;-62
2023/09/07 17:13:17;;;;;;;;;;;;;;;23.42;50.33;95968.38;10460340;28;1898;-62
2023/09/07 17:18:17;;;;;;;;;;;;;;;23.41;50.23;95958.88;10475986;28;1402;-62
2023/09/07 17:23:18;;;;;;;;;;;;;;;23.42;50.27;95963.09;10491141;28;1013;-62
2023/09/07 17:28:18;;;;;;;;;;;;;;;23.41;50.21;95961.53;10482263;28;1424;-62
2023/09/07 17:33:18;;;;;;;;;;;;;;;23.40;50.27;95968.66;10477900;28;1967;-62
2023/09/07 17:38:18;;;;;;;;;;;;;;;23.40;50.05;95960.72;10479346;28;1147;-62
2023/09/07 17:43:19;;;;;;;;;;;;;;;23.41;50.12;95961.53;10502633;28;5506;-62
2023/09/07 17:48:19;;;;;;;;;;;;;;;23.40;50.06;95959.94;10488842;28;2357;-62
2023/09/07 17:53:19;;;;;;;;;;;;;;;23.40;50.28;95965.22;10490038;28;1917;-62
2023/09/07 17:58:19;;;;;;;;;;;;;;;23.40;50.15;95965.22;10481162;28;1573;-62
2023/09/07 18:03:20;;;;;;;;;;;;;;;23.41;50.19;95969.47;10475906;28;1351;-62
2023/09/07 18:08:20;;;;;;;;;;;;;;;23.40;49.95;95987.19;10490777;28;1031;-62
2023/09/07 18:13:20;;;;;;;;;;;;;;;23.40;50.14;95989.84;10484205;28;1973;-62
2023/09/07 18:18:20;;;;;;;;;;;;;;;23.40;50.06;95984.53;10474631;28;1374;-62
2023/09/07 18:23:23;;;;;;;;;;;;;;;23.40;50.07;95989.84;10481112;28;1106;-62
2023/09/07 18:28:23;;;;;;;;;;;;;;;23.40;50.22;95992.47;10474732;28;1438;-62
2023/09/07 18:33:24;;;;;;;;;;;;;;;23.39;50.05;95988.25;10463350;28;1984;-62
2023/09/07 18:38:24;;;;;;;;;;;;;;;23.40;50.05;95989.03;10492259;28;1031;-62
2023/09/07 18:43:24;;;;;;;;;;;;;;;23.39;50.23;95995.38;10488343;28;5060;-62
2023/09/07 18:48:25;;;;;;;;;;;;;;;23.39;50.00;95988.25;10478442;28;2717;-62
2023/09/07 18:53:25;;;;;;;;;;;;;;;23.39;49.87;95988.25;10470523;28;1914;-62
2023/09/07 18:58:25;;;;;;;;;;;;;;;23.40;50.21;95989.03;10471605;28;1590;-62
2023/09/07 19:03:25;;;;;;;;;;;;;;;23.39;50.01;95980.31;10486330;28;1482;-62
2023/09/07 19:08:26;;;;;;;;;;;;;;;23.39;50.09;95979.53;10497409;28;1482;-62
2023/09/07 19:13:26;;;;;;;;;;;;;;;23.39;49.96;95979.53;10462288;28;1910;-62
2023/09/07 19:18:26;;;;;;;;;;;;;;;23.39;50.19;95987.44;10474988;28;1581;-62
2023/09/07 19:23:26;;;;;;;;;;;;;;;23.39;50.08;95972.38;10476606;28;1477;-62
2023/09/07 19:28:27;;;;;;;;;;;;;;;23.39;50.21;95984.81;10487445;28;1450;-62
2023/09/07 19:33:27;;;;;;;;;;;;;;;23.39;49.98;95971.56;10493261;28;1917;-62
2023/09/07 19:38:27;;;;;;;;;;;;;;;23.40;50.10;95986.41;10487355;28;1162;-62
2023/09/07 19:43:28;;;;;;;;;;;;;;;23.38;50.00;95989.34;10484266;28;5102;-62
2023/09/07 19:48:28;;;;;;;;;;;;;;;23.38;49.89;95984.03;10478017;28;1418;-62
2023/09/07 19:53:28;;;;;;;;;;;;;;;23.39;49.92;95984.81;10480900;28;1914;-62
2023/09/07 19:58:28;;;;;;;;;;;;;;;23.39;50.05;95990.09;10494698;28;1628;-62
2023/09/07 20:03:29;;;;;;;;;;;;;;;23.38;50.15;95994.63;10489576;28;1407;-62
2023/09/07 20:08:29;;;;;;;;;;;;;;;23.38;50.08;95983.25;10490302;28;980;-62
2023/09/07 20:13:29;;;;;;;;;;;;;;;23.38;49.99;95988.53;10493149;28;1910;-62
2023/09/07 20:18:29;;;;;;;;;;;;;;;23.38;49.93;95980.59;10480481;28;1319;-62
2023/09/07 20:23:32;;;;;;;;;;;;;;;23.38;50.04;95984.03;10497137;28;1323;-62
2023/09/07 20:28:32;;;;;;;;;;;;;;;23.38;49.81;95983.25;10487734;28;1379;-62
2023/09/07 20:33:32;;;;;;;;;;;;;;;23.38;49.94;95978.75;10490911;28;1976;-62
2023/09/07 20:38:33;;;;;;;;;;;;;;;23.38;50.17;95972.66;10470926;28;2977;-62
2023/09/07 20:43:33;;;;;;;;;;;;;;;23.38;49.87;95975.31;10487890;28;4999;-62
2023/09/07 20:48:33;;;;;;;;;;;;;;;23.39;49.96;95984.81;10470920;28;1366;-62
2023/09/07 20:53:34;;;;;;;;;;;;;;;23.37;49.97;95973.72;10499286;28;1918;-62
2023/09/07 20:58:34;;;;;;;;;;;;;;;23.37;50.06;95982.47;10472562;28;1425;-62
2023/09/07 21:03:34;;;;;;;;;;;;;;;23.37;49.90;95982.47;10478904;28;1551;-63
2023/09/07 21:08:35;;;;;;;;;;;;;;;23.37;50.22;95984.31;10467035;28;1094;-63
2023/09/07 21:13:35;;;;;;;;;;;;;;;23.38;49.99;95985.91;10487610;28;1963;-63
2023/09/07 21:18:35;;;;;;;;;;;;;;;23.37;50.08;95979.81;10491190;28;1351;-63
2023/09/07 21:23:38;;;;;;;;;;;;;;;23.38;50.15;95977.97;10494643;28;1038;-63
2023/09/07 21:28:38;;;;;;;;;;;;;;;23.37;50.07;95982.47;10484265;28;1597;-63
2023/09/07 21:33:39;;;;;;;;;;;;;;;23.37;49.87;95981.66;10485992;28;2454;-63
2023/09/07 21:38:39;;;;;;;;;;;;;;;23.37;50.02;95973.72;10482878;28;1335;-63
2023/09/07 21:43:39;;;;;;;;;;;;;;;23.37;49.79;95984.31;10495059;28;5292;-63
2023/09/07 21:48:40;;;;;;;;;;;;;;;23.37;49.94;95981.66;10490109;28;1441;-63
2023/09/07 21:53:40;;;;;;;;;;;;;;;23.37;50.12;95973.72;10472784;28;1884;-63
2023/09/07 21:58:40;;;;;;;;;;;;;;;23.36;50.02;95980.09;10481771;28;1404;-63
2023/09/07 22:03:40;;;;;;;;;;;;;;;23.37;49.91;95981.66;10481448;28;1462;-62
2023/09/07 22:08:41;;;;;;;;;;;;;;;23.36;49.82;95980.91;10489798;28;1410;-62
2023/09/07 22:13:41;;;;;;;;;;;;;;;23.36;49.96;95977.47;10494079;28;1969;-62
2023/09/07 22:18:41;;;;;;;;;;;;;;;23.34;50.05;95971.66;10482793;28;1570;-61
2023/09/07 22:23:42;;;;;;;;;;;;;;;23.36;50.02;95977.47;10485284;28;1528;-62
2023/09/07 22:28:42;;;;;;;;;;;;;;;23.36;49.94;95964.22;10477956;28;1640;-62
2023/09/07 22:33:42;;;;;;;;;;;;;;;23.36;49.90;95959.72;10463305;28;2765;-62
2023/09/07 22:38:42;;;;;;;;;;;;;;;23.36;50.08;95965.03;10498623;28;1553;-61
2023/09/07 22:43:43;;;;;;;;;;;;;;;23.36;50.04;95970.31;10483297;28;5206;-62
2023/09/07 22:48:43;;;;;;;;;;;;;;;23.35;49.97;95960.78;10463367;28;1433;-61
2023/09/07 22:53:43;;;;;;;;;;;;;;;23.36;50.03;95961.59;10475871;28;1959;-62
2023/09/07 22:58:44;;;;;;;;;;;;;;;23.35;50.04;95967.94;10475961;28;1377;-62
2023/09/07 23:03:44;;;;;;;;;;;;;;;;;;10476180;28;1482;-62
2023/09/07 23:08:44;;;;;;;;;;;;;;;23.35;49.92;95976.66;10490422;28;1014;-61
2023/09/07 23:13:45;;;;;;;;;;;;;;;23.35;49.99;95965.28;10484568;28;1901;-62
2023/09/07 23:18:45;;;;;;;;;;;;;;;23.35;49.97;95965.28;10484071;28;1367;-62
2023/09/07 23:23:45;;;;;;;;;;;;;;;23.35;50.06;95978.50;10474275;28;1095;-61
2023/09/07 23:28:46;;;;;;;;;;;;;;;23.35;49.97;95978.50;10484048;28;2358;-62
2023/09/07 23:33:46;;;;;;;;;;;;;;;;;;10498016;28;1890;-61
2023/09/07 23:38:46;;;;;;;;;;;;;;;23.35;49.85;95967.94;10486746;28;1199;-61
2023/09/07 23:43:47;;;;;;;;;;;;;;;;;;10485360;28;5118;-62
2023/09/07 23:48:47;;;;;;;;;;;;;;;23.34;49.92;95955.78;10489601;28;1391;-62
2023/09/07 23:53:47;;;;;;;;;;;;;;;23.33;49.67;95956.84;10494324;28;1918;-62
2023/09/07 23:58:47;;;;;;;;;;;;;;;23.34;49.95;95969.03;10502106;28;1009;-62
